Shannon, Ireland
Current Conditions -  °F | °C
As of 7:30 AM on Wednesday 22 Oct 2014 (Local Time) from EINN Reporting Station
Broken Clouds Broken Clouds  
Wind Chill: 54°   Ceiling: 9000
Heat Index: 54°   Visibility: 6mi
Dew Point: 43°   Wind: 7mph
Humidity: 67%   Direction: 200°SSW
Pressure: 30.27"   Gusts: NA
Location:  52.71°N, 8.87°W
Report Text: EINN 220730Z 20006KT 9999 SCT026 BKN090 12/06 Q1025 NOSIG
Loading
Personal Weather Stations






























Interactive Weather Map
Tropical Storm Tracking
New forecast layout! Learn more

10-Day Weather Forecast

Advertisements
Track Severe Weather on mobile